Aérodrome :
LOGIN :

S'inscrire | Disclaimer

   EN    FR    IT 

 










Légende :    VFR   VFR Marginal   IFR   IFR Intensif   IFR Très Intensif
Visi : 
Plafond : 
>= 8 km
>= 3000ft
5 à 8 km
1000 à 3000 ft
1500m à 5 km
500 à 1000 ft
800 à 1500m
200 à 500 ft
< 800m
< 200 ft
Symboles :   Orages  Brouillard  Fortes neiges  Fortes précipitations  Vent > 20 kt
SIGMETs :   Divers  Orages  Givrage  Turbulence  Onde Orograph.  Cendres Volcan.







- Altitude de l'aérodrome : 13 ft
- Code IATA : CAG


LIEE - Cagliari Elmas

DERNIER METAR :
  • 221120Z 09011KT 060V120 9999 FEW030 SCT045 16/09 Q1023

METARs EXPIRÉS :
  • 221050Z 10010KT 9999 FEW030 SCT045 17/10 Q1023
  • 221020Z 11006KT 090V150 9999 FEW040 17/10 Q1023
  • 220950Z 09010KT 9999 SCT040 15/10 Q1023
  • 220920Z 08011KT 060V130 9999 -RA FEW035 SCT050 15/10 Q1023
  • 220850Z 08010KT 9999 FEW035 SCT050 15/10 Q1023

TAF TAF LIEE
Valide du 22 à 12h jusqu'au 23 à 12h UTC


221100Z 2212/2312 07012KT 9999 SCT030
TEMPO 2212/2215 RA
Pas de NOTAMs connus pour ce terrain.
2 SIGMETs publiés pour la FIR Roma (LIRR) :
 
Orages noyés dans la masse
LIRR SIGMET 2 VALID 221130/221430 LIIB
LIRR ROMA FIR EMBD TS FCST WI N3912 E00757 - N3935 E01117 - N3801 E01434 - N3634 E01537 - N3629 E01128 - N3729 E01128 - N3856 E00754 - N3912 E00757 TOP ABV FL150 MOV ENE NC=
Orages noyés dans la masse
LIRR SIGMET 1 VALID 220749/221130 LIIB
LIRR ROMA FIR EMBD TS FCST WI N3912 E00757 - N3935 E01117 - N3801 E01434 - N3634 E01537 - N3629 E01128 - N3729 E01128 - N3856 E00754 - N3912 E00757 TOP ABV FL150 MOV ENE NC=



MET'MAP, la Météo Aéronautique d'un coup d'oeil ! - Copyright ORBIFLY Décembre 2007 - Disclaimer

ORBIFLY MET'MAP TEAM :

Programmation & Développement : Alexandra Zaïnal
Conception & Développement : Baudouin d'Aumeries
Co-Programmation & Développement : Marc-Olivier Méhu
Soutien technique & logistique : Manuel Goepfert

Contact : metmap@orbifly.com




SOURCES & CREDITS :

   NOAA